sensor_id;sensor_type;location;lat;lon;timestamp;P1;durP1;ratioP1;P2;durP2;ratioP2
38499;SDS011;24269;51.894;4.622;2023-03-21T00:00:52;17.13;;;9.20;;
38499;SDS011;24269;51.894;4.622;2023-03-21T00:03:27;17.75;;;9.48;;
38499;SDS011;24269;51.894;4.622;2023-03-21T00:05:55;18.83;;;9.30;;
38499;SDS011;24269;51.894;4.622;2023-03-21T00:08:22;16.50;;;9.52;;
38499;SDS011;24269;51.894;4.622;2023-03-21T00:10:55;18.75;;;9.25;;
38499;SDS011;24269;51.894;4.622;2023-03-21T00:13:23;22.27;;;9.88;;
38499;SDS011;24269;51.894;4.622;2023-03-21T00:15:50;17.13;;;9.07;;
38499;SDS011;24269;51.894;4.622;2023-03-21T00:18:18;17.70;;;9.80;;
38499;SDS011;24269;51.894;4.622;2023-03-21T00:21:03;23.88;;;10.23;;
38499;SDS011;24269;51.894;4.622;2023-03-21T00:23:30;18.58;;;9.02;;
38499;SDS011;24269;51.894;4.622;2023-03-21T00:25:56;19.30;;;9.15;;
38499;SDS011;24269;51.894;4.622;2023-03-21T00:28:23;17.45;;;9.55;;
38499;SDS011;24269;51.894;4.622;2023-03-21T00:30:49;18.02;;;9.43;;
38499;SDS011;24269;51.894;4.622;2023-03-21T00:33:15;17.23;;;8.88;;
38499;SDS011;24269;51.894;4.622;2023-03-21T00:35:45;17.88;;;9.52;;
38499;SDS011;24269;51.894;4.622;2023-03-21T00:38:16;20.10;;;10.02;;
38499;SDS011;24269;51.894;4.622;2023-03-21T00:40:42;16.73;;;8.88;;
38499;SDS011;24269;51.894;4.622;2023-03-21T00:43:08;21.65;;;9.60;;
38499;SDS011;24269;51.894;4.622;2023-03-21T00:45:35;22.00;;;9.52;;
38499;SDS011;24269;51.894;4.622;2023-03-21T00:48:01;17.58;;;9.30;;
38499;SDS011;24269;51.894;4.622;2023-03-21T00:50:27;20.33;;;9.43;;
38499;SDS011;24269;51.894;4.622;2023-03-21T00:52:52;19.55;;;10.30;;
38499;SDS011;24269;51.894;4.622;2023-03-21T00:55:18;21.08;;;9.00;;
38499;SDS011;24269;51.894;4.622;2023-03-21T00:57:45;21.58;;;9.90;;
38499;SDS011;24269;51.894;4.622;2023-03-21T01:00:11;23.73;;;9.82;;
38499;SDS011;24269;51.894;4.622;2023-03-21T01:02:38;20.55;;;9.02;;
38499;SDS011;24269;51.894;4.622;2023-03-21T01:05:20;18.33;;;8.70;;
38499;SDS011;24269;51.894;4.622;2023-03-21T01:08:14;18.55;;;9.38;;
38499;SDS011;24269;51.894;4.622;2023-03-21T01:10:41;17.67;;;8.63;;
38499;SDS011;24269;51.894;4.622;2023-03-21T01:13:09;17.42;;;8.38;;
38499;SDS011;24269;51.894;4.622;2023-03-21T01:15:36;19.15;;;8.50;;
38499;SDS011;24269;51.894;4.622;2023-03-21T01:18:08;16.05;;;7.25;;
38499;SDS011;24269;51.894;4.622;2023-03-21T01:20:34;17.20;;;7.38;;
38499;SDS011;24269;51.894;4.622;2023-03-21T01:22:59;17.83;;;7.55;;
38499;SDS011;24269;51.894;4.622;2023-03-21T01:25:25;16.02;;;7.18;;
38499;SDS011;24269;51.894;4.622;2023-03-21T01:27:51;16.70;;;6.53;;
38499;SDS011;24269;51.894;4.622;2023-03-21T01:30:18;16.13;;;5.72;;
38499;SDS011;24269;51.894;4.622;2023-03-21T01:32:44;11.93;;;6.18;;
38499;SDS011;24269;51.894;4.622;2023-03-21T01:35:10;11.80;;;5.95;;
38499;SDS011;24269;51.894;4.622;2023-03-21T01:37:36;12.38;;;6.00;;
38499;SDS011;24269;51.894;4.622;2023-03-21T01:40:02;15.32;;;6.72;;
38499;SDS011;24269;51.894;4.622;2023-03-21T01:42:29;11.80;;;5.63;;
38499;SDS011;24269;51.894;4.622;2023-03-21T01:45:00;13.40;;;5.80;;
38499;SDS011;24269;51.894;4.622;2023-03-21T01:47:28;12.80;;;5.70;;
38499;SDS011;24269;51.894;4.622;2023-03-21T01:49:55;13.65;;;5.32;;
38499;SDS011;24269;51.894;4.622;2023-03-21T01:52:29;12.30;;;5.85;;
38499;SDS011;24269;51.894;4.622;2023-03-21T01:54:58;12.40;;;5.50;;
38499;SDS011;24269;51.894;4.622;2023-03-21T01:57:26;11.93;;;5.38;;
38499;SDS011;24269;51.894;4.622;2023-03-21T02:00:00;13.75;;;5.22;;
38499;SDS011;24269;51.894;4.622;2023-03-21T02:02:38;14.98;;;5.57;;
38499;SDS011;24269;51.894;4.622;2023-03-21T02:05:23;11.10;;;5.70;;
38499;SDS011;24269;51.894;4.622;2023-03-21T02:08:01;13.70;;;6.43;;
38499;SDS011;24269;51.894;4.622;2023-03-21T02:10:27;13.65;;;6.38;;
38499;SDS011;24269;51.894;4.622;2023-03-21T02:12:55;15.93;;;6.97;;
38499;SDS011;24269;51.894;4.622;2023-03-21T02:15:32;15.95;;;6.60;;
38499;SDS011;24269;51.894;4.622;2023-03-21T02:18:01;12.95;;;6.22;;
38499;SDS011;24269;51.894;4.622;2023-03-21T02:20:40;14.98;;;7.32;;
38499;SDS011;24269;51.894;4.622;2023-03-21T02:24:08;14.23;;;6.60;;
38499;SDS011;24269;51.894;4.622;2023-03-21T02:26:28;15.75;;;7.20;;
38499;SDS011;24269;51.894;4.622;2023-03-21T02:29:03;20.05;;;7.28;;
38499;SDS011;24269;51.894;4.622;2023-03-21T02:31:45;12.77;;;6.75;;
38499;SDS011;24269;51.894;4.622;2023-03-21T02:34:37;12.55;;;6.55;;
38499;SDS011;24269;51.894;4.622;2023-03-21T02:37:19;17.58;;;7.20;;
38499;SDS011;24269;51.894;4.622;2023-03-21T02:40:17;15.70;;;7.20;;
38499;SDS011;24269;51.894;4.622;2023-03-21T02:45:45;17.15;;;7.35;;
38499;SDS011;24269;51.894;4.622;2023-03-21T02:48:17;13.75;;;6.82;;
38499;SDS011;24269;51.894;4.622;2023-03-21T02:50:50;15.25;;;7.57;;
38499;SDS011;24269;51.894;4.622;2023-03-21T02:53:22;17.23;;;7.32;;
38499;SDS011;24269;51.894;4.622;2023-03-21T02:55:50;14.80;;;7.20;;
38499;SDS011;24269;51.894;4.622;2023-03-21T02:58:18;15.05;;;7.10;;
38499;SDS011;24269;51.894;4.622;2023-03-21T03:00:46;22.95;;;8.80;;
38499;SDS011;24269;51.894;4.622;2023-03-21T03:03:13;13.23;;;6.75;;
38499;SDS011;24269;51.894;4.622;2023-03-21T03:05:44;18.20;;;7.45;;
38499;SDS011;24269;51.894;4.622;2023-03-21T03:11:14;13.63;;;6.57;;
38499;SDS011;24269;51.894;4.622;2023-03-21T03:14:08;14.75;;;6.72;;
38499;SDS011;24269;51.894;4.622;2023-03-21T03:22:25;16.10;;;7.20;;
38499;SDS011;24269;51.894;4.622;2023-03-21T03:27:31;15.93;;;6.60;;
38499;SDS011;24269;51.894;4.622;2023-03-21T03:30:02;16.33;;;7.03;;
38499;SDS011;24269;51.894;4.622;2023-03-21T03:32:40;15.73;;;7.80;;
38499;SDS011;24269;51.894;4.622;2023-03-21T03:35:14;16.05;;;6.85;;
38499;SDS011;24269;51.894;4.622;2023-03-21T03:37:43;17.80;;;6.55;;
38499;SDS011;24269;51.894;4.622;2023-03-21T03:40:23;16.10;;;7.20;;
38499;SDS011;24269;51.894;4.622;2023-03-21T03:42:59;18.05;;;7.10;;
38499;SDS011;24269;51.894;4.622;2023-03-21T03:45:33;16.23;;;6.40;;
38499;SDS011;24269;51.894;4.622;2023-03-21T03:50:41;15.50;;;7.25;;
38499;SDS011;24269;51.894;4.622;2023-03-21T03:53:18;20.65;;;6.97;;
38499;SDS011;24269;51.894;4.622;2023-03-21T03:55:52;17.13;;;6.68;;
38499;SDS011;24269;51.894;4.622;2023-03-21T03:58:20;15.85;;;6.68;;
38499;SDS011;24269;51.894;4.622;2023-03-21T04:00:47;14.95;;;7.05;;
38499;SDS011;24269;51.894;4.622;2023-03-21T04:03:14;14.18;;;6.90;;
38499;SDS011;24269;51.894;4.622;2023-03-21T04:05:40;14.90;;;7.28;;
38499;SDS011;24269;51.894;4.622;2023-03-21T04:08:06;16.58;;;7.70;;
38499;SDS011;24269;51.894;4.622;2023-03-21T04:10:32;15.68;;;7.38;;
38499;SDS011;24269;51.894;4.622;2023-03-21T04:12:58;16.98;;;7.65;;
38499;SDS011;24269;51.894;4.622;2023-03-21T04:15:24;15.95;;;7.75;;
38499;SDS011;24269;51.894;4.622;2023-03-21T04:17:50;17.27;;;8.30;;
38499;SDS011;24269;51.894;4.622;2023-03-21T04:20:15;18.95;;;7.88;;
38499;SDS011;24269;51.894;4.622;2023-03-21T04:22:41;19.67;;;7.95;;
38499;SDS011;24269;51.894;4.622;2023-03-21T04:25:07;17.52;;;7.95;;
38499;SDS011;24269;51.894;4.622;2023-03-21T04:27:33;16.08;;;8.15;;
38499;SDS011;24269;51.894;4.622;2023-03-21T04:29:59;19.35;;;9.07;;
38499;SDS011;24269;51.894;4.622;2023-03-21T04:32:25;18.20;;;7.55;;
38499;SDS011;24269;51.894;4.622;2023-03-21T04:34:51;23.67;;;9.85;;
38499;SDS011;24269;51.894;4.622;2023-03-21T04:37:19;18.17;;;8.68;;
38499;SDS011;24269;51.894;4.622;2023-03-21T04:39:47;17.13;;;8.70;;
38499;SDS011;24269;51.894;4.622;2023-03-21T04:42:14;20.35;;;8.82;;
38499;SDS011;24269;51.894;4.622;2023-03-21T04:44:42;18.15;;;8.25;;
38499;SDS011;24269;51.894;4.622;2023-03-21T04:47:08;17.02;;;7.97;;
38499;SDS011;24269;51.894;4.622;2023-03-21T04:49:35;21.15;;;8.50;;
38499;SDS011;24269;51.894;4.622;2023-03-21T04:52:00;18.80;;;7.88;;
38499;SDS011;24269;51.894;4.622;2023-03-21T04:54:26;16.55;;;7.88;;
38499;SDS011;24269;51.894;4.622;2023-03-21T04:56:52;22.02;;;8.05;;
38499;SDS011;24269;51.894;4.622;2023-03-21T04:59:18;17.58;;;7.68;;
38499;SDS011;24269;51.894;4.622;2023-03-21T05:01:44;23.67;;;8.68;;
38499;SDS011;24269;51.894;4.622;2023-03-21T05:04:10;17.77;;;8.15;;
38499;SDS011;24269;51.894;4.622;2023-03-21T05:06:38;19.13;;;8.43;;
38499;SDS011;24269;51.894;4.622;2023-03-21T05:09:06;17.92;;;7.28;;
38499;SDS011;24269;51.894;4.622;2023-03-21T05:11:33;18.25;;;7.15;;
38499;SDS011;24269;51.894;4.622;2023-03-21T05:14:01;18.42;;;8.27;;
38499;SDS011;24269;51.894;4.622;2023-03-21T05:16:28;17.77;;;7.63;;
38499;SDS011;24269;51.894;4.622;2023-03-21T05:18:57;17.02;;;7.30;;
38499;SDS011;24269;51.894;4.622;2023-03-21T05:21:28;16.13;;;7.35;;
38499;SDS011;24269;51.894;4.622;2023-03-21T05:23:58;18.48;;;7.72;;
38499;SDS011;24269;51.894;4.622;2023-03-21T05:26:27;17.90;;;7.95;;
38499;SDS011;24269;51.894;4.622;2023-03-21T05:28:53;15.52;;;7.53;;
38499;SDS011;24269;51.894;4.622;2023-03-21T05:31:20;16.55;;;7.07;;
38499;SDS011;24269;51.894;4.622;2023-03-21T05:33:46;17.38;;;7.40;;
38499;SDS011;24269;51.894;4.622;2023-03-21T05:36:12;18.73;;;7.63;;
38499;SDS011;24269;51.894;4.622;2023-03-21T05:38:38;17.35;;;7.28;;
38499;SDS011;24269;51.894;4.622;2023-03-21T05:41:06;19.17;;;7.65;;
38499;SDS011;24269;51.894;4.622;2023-03-21T05:43:32;13.95;;;6.55;;
38499;SDS011;24269;51.894;4.622;2023-03-21T05:45:58;17.88;;;7.35;;
38499;SDS011;24269;51.894;4.622;2023-03-21T05:48:23;17.13;;;7.30;;
38499;SDS011;24269;51.894;4.622;2023-03-21T05:50:49;17.02;;;6.80;;
38499;SDS011;24269;51.894;4.622;2023-03-21T05:53:15;19.35;;;7.32;;
38499;SDS011;24269;51.894;4.622;2023-03-21T05:55:40;16.17;;;6.78;;
38499;SDS011;24269;51.894;4.622;2023-03-21T05:58:06;17.27;;;7.35;;
38499;SDS011;24269;51.894;4.622;2023-03-21T06:00:32;15.15;;;7.57;;
38499;SDS011;24269;51.894;4.622;2023-03-21T06:02:57;13.77;;;6.40;;
38499;SDS011;24269;51.894;4.622;2023-03-21T06:05:23;18.88;;;7.57;;
38499;SDS011;24269;51.894;4.622;2023-03-21T06:07:48;13.57;;;6.55;;
38499;SDS011;24269;51.894;4.622;2023-03-21T06:10:14;17.52;;;6.90;;
38499;SDS011;24269;51.894;4.622;2023-03-21T06:12:40;16.50;;;6.93;;
38499;SDS011;24269;51.894;4.622;2023-03-21T06:15:07;14.90;;;6.55;;
38499;SDS011;24269;51.894;4.622;2023-03-21T06:17:34;14.65;;;6.18;;
38499;SDS011;24269;51.894;4.622;2023-03-21T06:19:59;18.67;;;5.88;;
38499;SDS011;24269;51.894;4.622;2023-03-21T06:22:26;14.80;;;5.85;;
38499;SDS011;24269;51.894;4.622;2023-03-21T06:24:51;15.05;;;6.13;;
38499;SDS011;24269;51.894;4.622;2023-03-21T06:27:17;15.95;;;6.30;;
38499;SDS011;24269;51.894;4.622;2023-03-21T06:29:43;17.40;;;6.45;;
38499;SDS011;24269;51.894;4.622;2023-03-21T06:32:10;18.27;;;6.32;;
38499;SDS011;24269;51.894;4.622;2023-03-21T06:34:36;16.42;;;6.57;;
38499;SDS011;24269;51.894;4.622;2023-03-21T06:37:01;13.32;;;5.60;;
38499;SDS011;24269;51.894;4.622;2023-03-21T06:39:28;12.88;;;6.18;;
38499;SDS011;24269;51.894;4.622;2023-03-21T06:41:55;13.40;;;5.38;;
38499;SDS011;24269;51.894;4.622;2023-03-21T06:44:21;15.40;;;6.03;;
38499;SDS011;24269;51.894;4.622;2023-03-21T06:46:46;17.00;;;5.45;;
38499;SDS011;24269;51.894;4.622;2023-03-21T06:49:12;11.60;;;5.40;;
38499;SDS011;24269;51.894;4.622;2023-03-21T06:51:37;13.63;;;5.88;;
38499;SDS011;24269;51.894;4.622;2023-03-21T06:54:03;15.27;;;5.53;;
38499;SDS011;24269;51.894;4.622;2023-03-21T06:56:29;16.05;;;6.05;;
38499;SDS011;24269;51.894;4.622;2023-03-21T06:58:55;12.50;;;5.43;;
38499;SDS011;24269;51.894;4.622;2023-03-21T07:01:20;13.85;;;6.05;;
38499;SDS011;24269;51.894;4.622;2023-03-21T07:03:46;11.35;;;5.30;;
38499;SDS011;24269;51.894;4.622;2023-03-21T07:06:12;12.70;;;5.47;;
38499;SDS011;24269;51.894;4.622;2023-03-21T07:08:38;14.23;;;5.43;;
38499;SDS011;24269;51.894;4.622;2023-03-21T07:11:05;14.95;;;5.50;;
38499;SDS011;24269;51.894;4.622;2023-03-21T07:13:31;11.80;;;5.10;;
38499;SDS011;24269;51.894;4.622;2023-03-21T07:15:57;11.55;;;5.55;;
38499;SDS011;24269;51.894;4.622;2023-03-21T07:18:24;10.80;;;5.32;;
38499;SDS011;24269;51.894;4.622;2023-03-21T07:20:50;14.18;;;5.45;;
38499;SDS011;24269;51.894;4.622;2023-03-21T07:23:19;15.57;;;5.45;;
38499;SDS011;24269;51.894;4.622;2023-03-21T07:25:46;13.38;;;5.88;;
38499;SDS011;24269;51.894;4.622;2023-03-21T07:28:13;13.10;;;5.07;;
38499;SDS011;24269;51.894;4.622;2023-03-21T07:30:40;13.68;;;5.60;;
38499;SDS011;24269;51.894;4.622;2023-03-21T07:33:06;13.60;;;5.72;;
38499;SDS011;24269;51.894;4.622;2023-03-21T07:35:32;14.32;;;5.43;;
38499;SDS011;24269;51.894;4.622;2023-03-21T07:37:57;15.93;;;5.60;;
38499;SDS011;24269;51.894;4.622;2023-03-21T07:40:23;12.38;;;4.78;;
38499;SDS011;24269;51.894;4.622;2023-03-21T07:42:49;14.13;;;4.90;;
38499;SDS011;24269;51.894;4.622;2023-03-21T07:45:15;12.23;;;5.30;;
38499;SDS011;24269;51.894;4.622;2023-03-21T07:47:45;11.70;;;4.75;;
38499;SDS011;24269;51.894;4.622;2023-03-21T07:50:10;11.77;;;4.68;;
38499;SDS011;24269;51.894;4.622;2023-03-21T07:52:37;12.93;;;4.85;;
38499;SDS011;24269;51.894;4.622;2023-03-21T07:55:02;10.90;;;4.32;;
38499;SDS011;24269;51.894;4.622;2023-03-21T07:57:28;13.02;;;4.35;;
38499;SDS011;24269;51.894;4.622;2023-03-21T07:59:54;10.30;;;4.80;;
38499;SDS011;24269;51.894;4.622;2023-03-21T08:02:20;9.68;;;4.00;;
38499;SDS011;24269;51.894;4.622;2023-03-21T08:04:45;9.10;;;3.78;;
38499;SDS011;24269;51.894;4.622;2023-03-21T08:07:11;11.63;;;4.57;;
38499;SDS011;24269;51.894;4.622;2023-03-21T08:09:37;9.93;;;4.07;;
38499;SDS011;24269;51.894;4.622;2023-03-21T08:12:03;7.22;;;3.42;;
38499;SDS011;24269;51.894;4.622;2023-03-21T08:14:32;6.35;;;3.05;;
38499;SDS011;24269;51.894;4.622;2023-03-21T08:16:58;8.57;;;3.60;;
38499;SDS011;24269;51.894;4.622;2023-03-21T08:19:23;9.02;;;3.40;;
38499;SDS011;24269;51.894;4.622;2023-03-21T08:21:51;10.45;;;3.60;;
38499;SDS011;24269;51.894;4.622;2023-03-21T08:24:17;11.43;;;3.72;;
38499;SDS011;24269;51.894;4.622;2023-03-21T08:26:43;8.82;;;4.13;;
38499;SDS011;24269;51.894;4.622;2023-03-21T08:29:10;12.07;;;4.00;;
38499;SDS011;24269;51.894;4.622;2023-03-21T08:31:39;11.15;;;4.10;;
38499;SDS011;24269;51.894;4.622;2023-03-21T08:34:05;8.23;;;3.40;;
38499;SDS011;24269;51.894;4.622;2023-03-21T08:36:31;14.35;;;4.35;;
38499;SDS011;24269;51.894;4.622;2023-03-21T08:38:57;9.82;;;4.00;;
38499;SDS011;24269;51.894;4.622;2023-03-21T08:41:29;10.10;;;4.53;;
38499;SDS011;24269;51.894;4.622;2023-03-21T08:43:56;10.80;;;4.55;;
38499;SDS011;24269;51.894;4.622;2023-03-21T08:46:21;13.30;;;4.18;;
38499;SDS011;24269;51.894;4.622;2023-03-21T08:48:47;12.10;;;4.88;;
38499;SDS011;24269;51.894;4.622;2023-03-21T08:51:13;8.95;;;5.07;;
38499;SDS011;24269;51.894;4.622;2023-03-21T08:53:38;10.77;;;4.57;;
38499;SDS011;24269;51.894;4.622;2023-03-21T08:56:05;12.27;;;4.70;;
38499;SDS011;24269;51.894;4.622;2023-03-21T08:58:31;15.73;;;5.22;;
38499;SDS011;24269;51.894;4.622;2023-03-21T09:00:57;12.65;;;5.80;;
38499;SDS011;24269;51.894;4.622;2023-03-21T09:03:23;11.93;;;5.15;;
38499;SDS011;24269;51.894;4.622;2023-03-21T09:05:51;13.07;;;4.93;;
38499;SDS011;24269;51.894;4.622;2023-03-21T09:08:18;14.27;;;6.07;;
38499;SDS011;24269;51.894;4.622;2023-03-21T09:10:53;13.23;;;5.35;;
38499;SDS011;24269;51.894;4.622;2023-03-21T09:13:20;14.23;;;6.10;;
38499;SDS011;24269;51.894;4.622;2023-03-21T09:15:46;12.27;;;5.22;;
38499;SDS011;24269;51.894;4.622;2023-03-21T09:18:12;12.27;;;4.97;;
38499;SDS011;24269;51.894;4.622;2023-03-21T09:20:39;13.35;;;5.38;;
38499;SDS011;24269;51.894;4.622;2023-03-21T09:23:07;15.73;;;5.25;;
38499;SDS011;24269;51.894;4.622;2023-03-21T09:25:33;10.90;;;5.53;;
38499;SDS011;24269;51.894;4.622;2023-03-21T09:27:59;12.77;;;5.35;;
38499;SDS011;24269;51.894;4.622;2023-03-21T09:30:28;12.98;;;5.80;;
38499;SDS011;24269;51.894;4.622;2023-03-21T09:32:54;14.68;;;5.30;;
38499;SDS011;24269;51.894;4.622;2023-03-21T09:35:20;11.77;;;5.32;;
38499;SDS011;24269;51.894;4.622;2023-03-21T09:37:46;10.85;;;5.18;;
38499;SDS011;24269;51.894;4.622;2023-03-21T09:40:15;15.77;;;6.03;;
38499;SDS011;24269;51.894;4.622;2023-03-21T09:45:30;15.32;;;5.55;;
38499;SDS011;24269;51.894;4.622;2023-03-21T09:48:03;13.25;;;5.32;;
38499;SDS011;24269;51.894;4.622;2023-03-21T09:50:35;13.85;;;5.70;;
38499;SDS011;24269;51.894;4.622;2023-03-21T09:53:03;14.07;;;5.43;;
38499;SDS011;24269;51.894;4.622;2023-03-21T09:55:51;10.05;;;5.35;;
38499;SDS011;24269;51.894;4.622;2023-03-21T09:58:25;10.95;;;5.13;;
38499;SDS011;24269;51.894;4.622;2023-03-21T10:01:18;11.82;;;5.28;;
38499;SDS011;24269;51.894;4.622;2023-03-21T10:04:05;11.70;;;5.55;;
38499;SDS011;24269;51.894;4.622;2023-03-21T10:06:35;10.82;;;5.15;;
38499;SDS011;24269;51.894;4.622;2023-03-21T10:09:10;11.82;;;5.30;;
38499;SDS011;24269;51.894;4.622;2023-03-21T10:11:44;12.70;;;5.32;;
38499;SDS011;24269;51.894;4.622;2023-03-21T10:14:21;12.15;;;4.85;;
38499;SDS011;24269;51.894;4.622;2023-03-21T10:16:55;15.35;;;5.22;;
38499;SDS011;24269;51.894;4.622;2023-03-21T10:19:26;9.70;;;4.93;;
38499;SDS011;24269;51.894;4.622;2023-03-21T10:21:52;9.68;;;5.00;;
38499;SDS011;24269;51.894;4.622;2023-03-21T10:24:22;12.30;;;5.22;;
38499;SDS011;24269;51.894;4.622;2023-03-21T10:26:50;10.38;;;4.88;;
38499;SDS011;24269;51.894;4.622;2023-03-21T10:29:18;10.23;;;4.95;;
38499;SDS011;24269;51.894;4.622;2023-03-21T10:31:47;11.10;;;4.65;;
38499;SDS011;24269;51.894;4.622;2023-03-21T10:36:42;10.57;;;5.20;;
38499;SDS011;24269;51.894;4.622;2023-03-21T10:39:14;12.85;;;5.65;;
38499;SDS011;24269;51.894;4.622;2023-03-21T10:41:43;15.80;;;5.22;;
38499;SDS011;24269;51.894;4.622;2023-03-21T10:44:10;11.13;;;5.50;;
38499;SDS011;24269;51.894;4.622;2023-03-21T10:46:57;10.68;;;5.55;;
38499;SDS011;24269;51.894;4.622;2023-03-21T10:49:39;9.88;;;4.68;;
38499;SDS011;24269;51.894;4.622;2023-03-21T10:52:09;8.43;;;4.40;;
38499;SDS011;24269;51.894;4.622;2023-03-21T10:54:40;9.30;;;4.22;;
38499;SDS011;24269;51.894;4.622;2023-03-21T10:57:14;7.65;;;4.28;;
38499;SDS011;24269;51.894;4.622;2023-03-21T10:59:55;10.02;;;4.00;;
38499;SDS011;24269;51.894;4.622;2023-03-21T11:02:25;8.82;;;4.85;;
38499;SDS011;24269;51.894;4.622;2023-03-21T11:04:55;11.30;;;4.95;;
38499;SDS011;24269;51.894;4.622;2023-03-21T11:07:22;11.10;;;4.47;;
38499;SDS011;24269;51.894;4.622;2023-03-21T11:09:57;10.32;;;4.28;;
38499;SDS011;24269;51.894;4.622;2023-03-21T11:12:45;10.25;;;4.20;;
38499;SDS011;24269;51.894;4.622;2023-03-21T11:15:27;10.43;;;4.68;;
38499;SDS011;24269;51.894;4.622;2023-03-21T11:17:57;11.48;;;4.50;;
38499;SDS011;24269;51.894;4.622;2023-03-21T11:20:24;20.45;;;7.05;;
38499;SDS011;24269;51.894;4.622;2023-03-21T11:22:53;10.38;;;4.90;;
38499;SDS011;24269;51.894;4.622;2023-03-21T11:25:30;9.57;;;4.30;;
38499;SDS011;24269;51.894;4.622;2023-03-21T11:28:08;8.57;;;4.47;;
38499;SDS011;24269;51.894;4.622;2023-03-21T11:30:37;6.95;;;4.10;;
38499;SDS011;24269;51.894;4.622;2023-03-21T11:33:18;8.07;;;3.78;;
38499;SDS011;24269;51.894;4.622;2023-03-21T11:35:44;12.05;;;4.93;;
38499;SDS011;24269;51.894;4.622;2023-03-21T11:38:41;9.02;;;4.22;;
38499;SDS011;24269;51.894;4.622;2023-03-21T11:41:07;10.07;;;4.07;;
38499;SDS011;24269;51.894;4.622;2023-03-21T11:43:36;8.15;;;4.25;;
38499;SDS011;24269;51.894;4.622;2023-03-21T11:48:29;7.63;;;4.07;;
38499;SDS011;24269;51.894;4.622;2023-03-21T11:54:06;10.00;;;4.50;;
38499;SDS011;24269;51.894;4.622;2023-03-21T11:56:39;7.30;;;3.40;;
38499;SDS011;24269;51.894;4.622;2023-03-21T11:59:13;8.50;;;3.80;;
38499;SDS011;24269;51.894;4.622;2023-03-21T12:01:54;9.20;;;3.97;;
38499;SDS011;24269;51.894;4.622;2023-03-21T12:04:40;12.60;;;4.95;;
38499;SDS011;24269;51.894;4.622;2023-03-21T12:12:40;10.57;;;4.93;;
38499;SDS011;24269;51.894;4.622;2023-03-21T12:15:19;8.38;;;4.07;;
38499;SDS011;24269;51.894;4.622;2023-03-21T12:20:52;10.93;;;4.35;;
38499;SDS011;24269;51.894;4.622;2023-03-21T12:26:27;10.25;;;3.88;;
38499;SDS011;24269;51.894;4.622;2023-03-21T12:39:42;8.93;;;4.60;;
38499;SDS011;24269;51.894;4.622;2023-03-21T12:44:57;8.50;;;4.45;;
38499;SDS011;24269;51.894;4.622;2023-03-21T12:47:31;7.95;;;4.22;;
38499;SDS011;24269;51.894;4.622;2023-03-21T12:49:59;8.00;;;4.38;;
38499;SDS011;24269;51.894;4.622;2023-03-21T12:55:05;9.75;;;4.53;;
38499;SDS011;24269;51.894;4.622;2023-03-21T12:57:47;10.55;;;4.50;;
38499;SDS011;24269;51.894;4.622;2023-03-21T13:02:48;9.13;;;4.18;;
38499;SDS011;24269;51.894;4.622;2023-03-21T13:05:40;7.90;;;4.47;;
38499;SDS011;24269;51.894;4.622;2023-03-21T13:10:46;9.70;;;4.72;;
38499;SDS011;24269;51.894;4.622;2023-03-21T13:13:22;13.70;;;4.28;;
38499;SDS011;24269;51.894;4.622;2023-03-21T13:24:56;9.05;;;4.28;;
38499;SDS011;24269;51.894;4.622;2023-03-21T13:30:01;10.38;;;3.88;;
38499;SDS011;24269;51.894;4.622;2023-03-21T13:35:12;7.60;;;4.20;;
38499;SDS011;24269;51.894;4.622;2023-03-21T13:38:01;7.15;;;3.55;;
38499;SDS011;24269;51.894;4.622;2023-03-21T13:40:56;7.60;;;3.95;;
38499;SDS011;24269;51.894;4.622;2023-03-21T13:43:38;7.93;;;4.05;;
38499;SDS011;24269;51.894;4.622;2023-03-21T13:59:09;13.48;;;5.63;;
38499;SDS011;24269;51.894;4.622;2023-03-21T14:01:37;26.40;;;10.45;;
38499;SDS011;24269;51.894;4.622;2023-03-21T14:04:09;8.68;;;4.10;;
38499;SDS011;24269;51.894;4.622;2023-03-21T14:06:50;7.20;;;3.70;;
38499;SDS011;24269;51.894;4.622;2023-03-21T14:09:35;9.77;;;4.15;;
38499;SDS011;24269;51.894;4.622;2023-03-21T14:12:05;10.40;;;4.95;;
38499;SDS011;24269;51.894;4.622;2023-03-21T14:14:52;13.48;;;5.25;;
